createdAt,value
2019-01-27T00:01:58.101Z,95636.30
2019-01-27T00:04:28.226Z,95630.87
2019-01-27T00:06:59.347Z,95622.12
2019-01-27T00:09:29.334Z,95619.53
2019-01-27T00:11:59.330Z,95612.40
2019-01-27T00:14:29.372Z,95606.16
2019-01-27T00:16:59.412Z,95605.30
2019-01-27T00:19:29.445Z,95597.80
2019-01-27T00:21:59.748Z,95591.98
2019-01-27T00:24:29.783Z,95584.00
2019-01-27T00:26:59.763Z,95582.81
2019-01-27T00:29:29.800Z,95576.10
2019-01-27T00:31:59.772Z,95571.56
2019-01-27T00:34:29.780Z,95561.93
2019-01-27T00:37:00.466Z,95559.34
2019-01-27T00:39:30.776Z,95562.67
2019-01-27T00:42:00.780Z,95560.12
2019-01-27T00:44:30.804Z,95559.23
2019-01-27T00:47:00.848Z,95558.38
2019-01-27T00:49:30.901Z,95559.14
2019-01-27T00:52:00.906Z,95554.48
2019-01-27T00:54:30.962Z,95551.96
2019-01-27T00:57:01.044Z,95547.33
2019-01-27T00:59:31.203Z,95548.98
2019-01-27T01:02:01.253Z,95542.22
2019-01-27T01:04:31.326Z,95538.84
2019-01-27T01:07:01.324Z,95534.64
2019-01-27T01:09:31.392Z,95536.31
2019-01-27T01:12:01.416Z,95533.81
2019-01-27T01:14:31.461Z,95532.54
2019-01-27T01:17:01.520Z,95530.05
2019-01-27T01:19:31.562Z,95527.09
2019-01-27T01:22:01.629Z,95524.95
2019-01-27T01:24:31.681Z,95526.09
2019-01-27T01:27:01.717Z,95526.09
2019-01-27T01:29:31.742Z,95522.74
2019-01-27T01:32:04.522Z,95509.40
2019-01-27T01:34:34.545Z,95507.73
2019-01-27T01:37:04.739Z,95506.02
2019-01-27T01:39:34.734Z,95497.22
2019-01-27T01:42:04.788Z,95494.30
2019-01-27T01:44:34.820Z,95495.92
2019-01-27T01:47:04.870Z,95491.72
2019-01-27T01:49:34.877Z,95487.55
2019-01-27T01:52:12.472Z,95486.64
2019-01-27T01:54:42.472Z,95479.12
2019-01-27T01:57:12.510Z,95480.79
2019-01-27T01:59:42.544Z,95474.88
2019-01-27T02:02:12.671Z,95469.01
2019-01-27T02:04:42.659Z,95461.44
2019-01-27T02:07:12.689Z,95462.59
2019-01-27T02:09:42.710Z,95449.27
2019-01-27T02:12:12.744Z,95450.36
2019-01-27T02:14:42.788Z,95447.80
2019-01-27T02:17:12.830Z,95439.80
2019-01-27T02:19:42.895Z,95438.07
2019-01-27T02:22:13.021Z,95430.55
2019-01-27T02:24:43.020Z,95426.44
2019-01-27T02:27:13.032Z,95423.46
2019-01-27T02:29:43.122Z,95423.34
2019-01-27T02:32:13.160Z,95417.41
2019-01-27T02:34:43.187Z,95409.38
2019-01-27T02:37:13.285Z,95403.88
2019-01-27T02:39:43.347Z,95398.83
2019-01-27T02:42:13.384Z,95395.36
2019-01-27T02:44:43.384Z,95384.53
2019-01-27T02:47:13.504Z,95379.45
2019-01-27T02:49:43.495Z,95373.58
2019-01-27T02:52:13.535Z,95375.28
2019-01-27T02:54:43.569Z,95365.22
2019-01-27T02:57:13.598Z,95353.14
2019-01-27T02:59:43.601Z,95351.02
2019-01-27T03:02:13.628Z,95340.25
2019-01-27T03:04:43.662Z,95338.66
2019-01-27T03:07:24.681Z,95337.05
2019-01-27T03:09:54.667Z,95327.92
2019-01-27T03:12:24.703Z,95329.66
2019-01-27T03:14:54.718Z,95325.97
2019-01-27T03:17:24.742Z,95318.91
2019-01-27T03:19:54.816Z,95313.19
2019-01-27T03:22:25.018Z,95312.08
2019-01-27T03:24:55.080Z,95302.98
2019-01-27T03:27:25.068Z,95300.83
2019-01-27T03:29:55.080Z,95292.48
2019-01-27T03:32:25.096Z,95284.18
2019-01-27T03:34:55.098Z,95280.39
2019-01-27T03:37:25.128Z,95279.93
2019-01-27T03:39:55.116Z,95272.45
2019-01-27T03:42:25.130Z,95268.28
2019-01-27T03:44:55.180Z,95263.30
2019-01-27T03:47:25.248Z,95256.63
2019-01-27T03:49:55.254Z,95254.05
2019-01-27T03:52:25.298Z,95247.77
2019-01-27T03:54:55.291Z,95244.77
2019-01-27T03:57:25.346Z,95235.52
2019-01-27T03:59:55.377Z,95233.00
2019-01-27T04:02:25.418Z,95232.19
2019-01-27T04:04:55.435Z,95227.20
2019-01-27T04:07:25.446Z,95218.02
2019-01-27T04:09:55.885Z,95217.98
2019-01-27T04:12:25.902Z,95217.14
2019-01-27T04:14:55.929Z,95213.34
2019-01-27T04:17:25.942Z,95202.07
2019-01-27T04:19:55.980Z,95204.56
2019-01-27T04:22:26.004Z,95201.22
2019-01-27T04:24:56.036Z,95188.36
2019-01-27T04:27:26.064Z,95187.16
2019-01-27T04:29:56.101Z,95183.92
2019-01-27T04:32:26.130Z,95177.37
2019-01-27T04:34:56.190Z,95163.73
2019-01-27T04:37:26.235Z,95150.84
2019-01-27T04:39:57.336Z,95177.63
2019-01-27T04:42:27.450Z,95151.86
2019-01-27T04:44:57.538Z,95156.95
2019-01-27T04:47:27.557Z,95156.57
2019-01-27T04:49:58.163Z,95150.36
2019-01-27T04:52:28.310Z,95145.84
2019-01-27T04:54:58.321Z,95147.97
2019-01-27T04:57:28.401Z,95145.47
2019-01-27T04:59:58.434Z,95147.09
2019-01-27T05:02:31.118Z,95139.63
2019-01-27T05:05:01.164Z,95141.27
2019-01-27T05:07:31.226Z,95140.48
2019-01-27T05:10:01.237Z,95130.06
2019-01-27T05:12:31.232Z,95124.26
2019-01-27T05:15:01.253Z,95123.45
2019-01-27T05:17:31.253Z,95123.02
2019-01-27T05:20:01.274Z,95120.14
2019-01-27T05:22:31.295Z,95112.20
2019-01-27T05:25:01.361Z,95118.89
2019-01-27T05:27:31.347Z,95118.84
2019-01-27T05:30:01.415Z,95114.33
2019-01-27T05:32:31.441Z,95110.58
2019-01-27T05:35:01.451Z,95112.25
2019-01-27T05:37:31.462Z,95108.95
2019-01-27T05:40:01.444Z,95103.21
2019-01-27T05:42:31.460Z,95108.63
2019-01-27T05:45:01.457Z,95110.70
2019-01-27T05:47:31.553Z,95111.08
2019-01-27T05:50:01.553Z,95104.84
2019-01-27T05:52:31.653Z,95108.95
2019-01-27T05:55:01.668Z,95101.83
2019-01-27T05:57:31.800Z,95094.73
2019-01-27T06:00:01.888Z,95088.95
2019-01-27T06:02:31.958Z,95082.72
2019-01-27T06:05:01.977Z,95073.53
2019-01-27T06:07:32.091Z,95068.99
2019-01-27T06:10:02.098Z,95065.62
2019-01-27T06:12:32.149Z,95058.94
2019-01-27T06:15:02.178Z,95074.06
2019-01-27T06:17:32.199Z,95069.94
2019-01-27T06:20:02.235Z,95065.78
2019-01-27T06:22:32.260Z,95062.08
2019-01-27T06:25:02.248Z,95055.84
2019-01-27T06:27:32.271Z,95056.75
2019-01-27T06:30:02.273Z,95049.71
2019-01-27T06:33:06.481Z,95037.27
2019-01-27T06:35:37.105Z,95035.19
2019-01-27T06:38:07.344Z,95031.14
2019-01-27T06:40:37.322Z,95030.41
2019-01-27T06:43:07.331Z,95023.83
2019-01-27T06:45:37.353Z,95020.56
2019-01-27T06:48:07.386Z,95021.46
2019-01-27T06:50:37.461Z,95016.50
2019-01-27T06:53:07.507Z,95019.41
2019-01-27T06:55:37.551Z,95015.73
2019-01-27T06:58:07.543Z,95014.48
2019-01-27T07:01:08.355Z,95012.79
2019-01-27T07:03:53.278Z,95010.74
2019-01-27T07:06:41.212Z,95011.54
2019-01-27T07:09:36.569Z,95003.25
2019-01-27T07:12:31.352Z,94998.25
2019-01-27T07:15:23.129Z,94998.25
2019-01-27T07:18:12.133Z,94991.63
2019-01-27T07:20:57.362Z,94982.50
2019-01-27T07:23:51.536Z,94977.07
2019-01-27T07:26:49.707Z,94978.38
2019-01-27T07:29:38.897Z,94979.22
2019-01-27T07:32:30.651Z,94975.08
2019-01-27T07:35:23.393Z,94971.35
2019-01-27T07:38:09.357Z,94969.72
2019-01-27T07:40:46.105Z,94956.81
2019-01-27T07:43:40.984Z,94958.55
2019-01-27T07:46:35.896Z,94946.48
2019-01-27T07:49:23.607Z,94938.97
2019-01-27T07:52:18.519Z,94940.98
2019-01-27T07:55:04.379Z,94931.82
2019-01-27T07:57:51.126Z,94923.49
2019-01-27T08:00:39.550Z,94918.95
2019-01-27T08:03:28.521Z,94911.48
2019-01-27T08:06:04.854Z,94909.44
2019-01-27T08:08:52.730Z,94911.98
2019-01-27T08:11:41.780Z,94906.98
2019-01-27T08:14:29.414Z,94915.37
2019-01-27T08:17:21.382Z,94913.34
2019-01-27T08:20:07.448Z,94912.95
2019-01-27T08:22:54.980Z,94924.92
2019-01-27T08:25:43.909Z,94929.34
2019-01-27T08:28:36.138Z,94928.00
2019-01-27T08:31:24.924Z,94922.99
2019-01-27T08:34:29.141Z,94925.48
2019-01-27T08:37:27.810Z,94918.40
2019-01-27T08:40:35.834Z,94911.33
2019-01-27T08:43:25.021Z,94917.23
2019-01-27T08:46:09.239Z,94901.13
2019-01-27T08:48:39.470Z,94896.34
2019-01-27T08:51:11.201Z,94894.95
2019-01-27T08:53:41.535Z,94888.08
2019-01-27T08:56:12.524Z,94884.53
2019-01-27T08:58:42.716Z,94886.39
2019-01-27T09:01:30.280Z,94873.59
2019-01-27T09:04:19.455Z,94884.92
2019-01-27T09:06:57.210Z,94877.46
2019-01-27T09:09:49.189Z,94875.00
2019-01-27T09:12:44.182Z,94875.03
2019-01-27T09:15:36.450Z,94869.18
2019-01-27T09:18:24.252Z,94865.45
2019-01-27T09:21:19.229Z,94859.63
2019-01-27T09:24:09.334Z,94863.83
2019-01-27T09:27:01.869Z,94858.41
2019-01-27T09:29:55.388Z,94861.36
2019-01-27T09:32:44.544Z,94851.77
2019-01-27T09:35:32.522Z,94860.98
2019-01-27T09:38:31.815Z,94845.92
2019-01-27T09:41:23.336Z,94856.39
2019-01-27T09:44:08.242Z,94861.81
2019-01-27T09:47:00.294Z,94853.91
2019-01-27T09:49:46.673Z,94857.25
2019-01-27T09:52:42.360Z,94854.34
2019-01-27T09:55:27.767Z,94852.23
2019-01-27T09:58:26.234Z,94853.49
2019-01-27T10:01:10.889Z,94849.30
2019-01-27T10:04:00.161Z,94866.42
2019-01-27T10:06:57.951Z,94864.73
2019-01-27T10:09:45.835Z,94871.00
2019-01-27T10:12:40.167Z,94861.79
2019-01-27T10:15:43.348Z,94863.48
2019-01-27T10:18:41.378Z,94862.23
2019-01-27T10:21:34.184Z,94850.13
2019-01-27T10:24:31.662Z,94849.70
2019-01-27T10:27:27.910Z,94841.78
2019-01-27T10:30:24.648Z,94825.06
2019-01-27T10:33:20.786Z,94812.53
2019-01-27T10:36:13.133Z,94809.16
2019-01-27T10:39:21.259Z,94808.34
2019-01-27T10:42:19.530Z,94791.60
2019-01-27T10:45:14.794Z,94791.62
2019-01-27T10:48:02.846Z,94792.45
2019-01-27T10:50:57.252Z,94775.72
2019-01-27T10:53:44.636Z,94774.06
2019-01-27T10:56:50.159Z,94772.39
2019-01-27T10:59:32.526Z,94764.03
2019-01-27T11:02:20.561Z,94756.52
2019-01-27T11:05:00.850Z,94746.44
2019-01-27T11:08:02.825Z,94735.58
2019-01-27T11:10:57.916Z,94728.05
2019-01-27T11:13:47.815Z,94713.79
2019-01-27T11:16:27.109Z,94722.12
2019-01-27T11:19:16.183Z,94711.63
2019-01-27T11:21:58.169Z,94723.77
2019-01-27T11:24:48.048Z,94709.52
2019-01-27T11:27:33.105Z,94710.36
2019-01-27T11:30:26.815Z,94705.34
2019-01-27T11:33:10.875Z,94692.77
2019-01-27T11:35:58.505Z,94690.23
2019-01-27T11:38:46.169Z,94670.11
2019-01-27T11:41:38.372Z,94679.24
2019-01-27T11:44:16.293Z,94667.47
2019-01-27T11:47:13.978Z,94671.64
2019-01-27T11:49:55.391Z,94663.25
2019-01-27T11:52:37.787Z,94658.23
2019-01-27T11:55:09.642Z,94658.23
2019-01-27T11:57:39.777Z,94649.03
2019-01-27T12:00:14.306Z,94649.09
2019-01-27T12:02:46.672Z,94649.54
2019-01-27T12:05:17.989Z,94655.41
2019-01-27T12:07:48.932Z,94655.02
2019-01-27T12:10:20.009Z,94654.20
2019-01-27T12:12:50.175Z,94652.97
2019-01-27T12:15:21.154Z,94648.38
2019-01-27T12:17:51.484Z,94651.31
2019-01-27T12:20:22.453Z,94636.66
2019-01-27T12:22:53.639Z,94627.48
2019-01-27T12:25:23.904Z,94624.12
2019-01-27T12:27:55.738Z,94617.44
2019-01-27T12:30:26.380Z,94611.53
2019-01-27T12:32:56.741Z,94603.17
2019-01-27T12:35:27.009Z,94600.66
2019-01-27T12:37:57.168Z,94598.12
2019-01-27T12:40:27.343Z,94593.89
2019-01-27T12:42:57.530Z,94596.37
2019-01-27T12:45:27.788Z,94588.44
2019-01-27T12:47:57.973Z,94584.22
2019-01-27T12:50:28.559Z,94578.77
2019-01-27T12:52:58.724Z,94571.23
2019-01-27T12:55:29.031Z,94564.55
2019-01-27T12:58:00.051Z,94564.95
2019-01-27T13:00:35.199Z,94563.69
2019-01-27T13:03:06.162Z,94557.84
2019-01-27T13:05:38.018Z,94556.52
2019-01-27T13:08:08.173Z,94561.91
2019-01-27T13:10:38.917Z,94551.84
2019-01-27T13:13:12.008Z,94549.70
2019-01-27T13:15:41.275Z,94549.30
2019-01-27T13:18:11.537Z,94547.62
2019-01-27T13:20:42.972Z,94548.47
2019-01-27T13:23:14.357Z,94546.81
2019-01-27T13:25:45.676Z,94541.81
2019-01-27T13:28:15.954Z,94535.95
2019-01-27T13:30:47.310Z,94533.44
2019-01-27T13:33:17.578Z,94534.27
2019-01-27T13:35:48.718Z,94527.16
2019-01-27T13:38:21.489Z,94527.56
2019-01-27T13:40:51.797Z,94530.91
2019-01-27T13:43:22.034Z,94526.30
2019-01-27T13:45:52.264Z,94530.06
2019-01-27T13:48:23.325Z,94527.52
2019-01-27T13:50:53.547Z,94521.63
2019-01-27T13:53:23.765Z,94528.70
2019-01-27T13:55:55.013Z,94521.55
2019-01-27T13:58:25.911Z,94514.84
2019-01-27T14:00:56.838Z,94517.31
2019-01-27T14:03:27.156Z,94515.63
2019-01-27T14:05:57.334Z,94511.44
2019-01-27T14:08:29.072Z,94519.82
2019-01-27T14:11:00.104Z,94513.97
2019-01-27T14:13:30.241Z,94511.02
2019-01-27T14:16:00.528Z,94508.02
2019-01-27T14:18:31.490Z,94501.70
2019-01-27T14:21:02.578Z,94487.79
2019-01-27T14:23:34.415Z,94494.08
2019-01-27T14:26:04.605Z,94493.69
2019-01-27T14:28:34.888Z,94500.41
2019-01-27T14:31:06.120Z,94502.96
2019-01-27T14:33:36.431Z,94502.95
2019-01-27T14:36:07.507Z,94502.57
2019-01-27T14:38:38.030Z,94505.48
2019-01-27T14:41:08.244Z,94502.14
2019-01-27T14:43:40.360Z,94501.71
2019-01-27T14:46:13.514Z,94499.63
2019-01-27T14:48:44.468Z,94508.44
2019-01-27T14:51:15.096Z,94494.64
2019-01-27T14:53:45.838Z,94489.23
2019-01-27T14:56:16.846Z,94484.65
2019-01-27T14:58:47.103Z,94480.43
2019-01-27T15:01:17.320Z,94475.41
2019-01-27T15:03:47.551Z,94483.37
2019-01-27T15:06:18.541Z,94484.63
2019-01-27T15:08:48.730Z,94482.55
2019-01-27T15:11:18.918Z,94476.66
2019-01-27T15:13:49.122Z,94470.38
2019-01-27T15:16:19.690Z,94471.20
2019-01-27T15:18:49.862Z,94468.69
2019-01-27T15:21:28.511Z,94474.92
2019-01-27T15:23:58.654Z,94474.58
2019-01-27T15:26:29.628Z,94485.89
2019-01-27T15:28:59.813Z,94483.84
2019-01-27T15:31:30.840Z,94476.76
2019-01-27T15:34:01.204Z,94483.02
2019-01-27T15:36:31.416Z,94486.37
2019-01-27T15:39:03.765Z,94484.30
2019-01-27T15:41:33.967Z,94482.20
2019-01-27T15:44:04.164Z,94474.31
2019-01-27T15:46:34.384Z,94463.48
2019-01-27T15:49:04.593Z,94461.42
2019-01-27T15:51:36.755Z,94459.75
2019-01-27T15:54:08.550Z,94458.91
2019-01-27T15:56:38.844Z,94467.77
2019-01-27T15:59:09.285Z,94474.05
2019-01-27T16:01:40.359Z,94488.33
2019-01-27T16:04:10.711Z,94491.31
2019-01-27T16:06:41.009Z,94490.90
2019-01-27T16:09:11.290Z,94496.80
2019-01-27T16:11:41.554Z,94498.52
2019-01-27T16:14:11.765Z,94490.98
2019-01-27T16:16:42.058Z,94501.51
2019-01-27T16:19:15.488Z,94499.47
2019-01-27T16:21:46.498Z,94493.62
2019-01-27T16:24:24.853Z,94504.52
2019-01-27T16:26:55.107Z,94503.66
2019-01-27T16:29:53.488Z,94504.52
2019-01-27T16:32:30.923Z,94510.42
2019-01-27T16:35:04.664Z,94512.08
2019-01-27T16:37:35.699Z,94523.83
2019-01-27T16:40:08.574Z,94517.98
2019-01-27T16:42:39.821Z,94516.30
2019-01-27T16:45:11.789Z,94507.11
2019-01-27T16:47:42.031Z,94492.92
2019-01-27T16:50:14.908Z,94495.46
2019-01-27T16:52:45.927Z,94497.55
2019-01-27T16:55:17.396Z,94496.33
2019-01-27T16:57:47.755Z,94492.98
2019-01-27T17:00:20.884Z,94492.62
2019-01-27T17:02:52.068Z,94495.12
2019-01-27T17:05:23.321Z,94492.23
2019-01-27T17:07:54.753Z,94489.33
2019-01-27T17:10:25.330Z,94493.52
2019-01-27T17:12:58.256Z,94487.28
2019-01-27T17:15:30.081Z,94483.09
2019-01-27T17:18:00.358Z,94478.50
2019-01-27T17:20:30.943Z,94480.63
2019-01-27T17:23:01.180Z,94481.03
2019-01-27T17:25:32.182Z,94474.78
2019-01-27T17:28:02.320Z,94473.13
2019-01-27T17:30:32.561Z,94468.13
2019-01-27T17:33:04.438Z,94460.63
2019-01-27T17:35:35.737Z,94470.23
2019-01-27T17:38:07.342Z,94463.56
2019-01-27T17:40:37.806Z,94456.47
2019-01-27T17:43:08.364Z,94453.53
2019-01-27T17:45:39.521Z,94454.81
2019-01-27T17:48:09.856Z,94456.89
2019-01-27T17:50:40.109Z,94456.48
2019-01-27T17:53:11.938Z,94462.32
2019-01-27T17:55:43.106Z,94462.32
2019-01-27T17:58:35.183Z,94459.81
2019-01-27T18:01:24.435Z,94462.32
2019-01-27T18:04:07.217Z,94461.48
2019-01-27T18:06:48.548Z,94451.87
2019-01-27T18:09:35.449Z,94453.98
2019-01-27T18:12:25.639Z,94457.73
2019-01-27T18:14:55.897Z,94457.30
2019-01-27T18:17:26.187Z,94454.80
2019-01-27T18:19:57.380Z,94457.30
2019-01-27T18:22:27.765Z,94450.66
2019-01-27T18:24:58.000Z,94456.09
2019-01-27T18:27:28.297Z,94463.19
2019-01-27T18:29:58.645Z,94453.19
2019-01-27T18:32:30.443Z,94463.22
2019-01-27T18:35:00.755Z,94457.36
2019-01-27T18:37:32.677Z,94458.62
2019-01-27T18:40:03.060Z,94454.05
2019-01-27T18:42:33.396Z,94454.87
2019-01-27T18:45:04.211Z,94457.38
2019-01-27T18:47:34.591Z,94451.54
2019-01-27T18:50:06.183Z,94449.87
2019-01-27T18:52:36.458Z,94439.42
2019-01-27T18:55:19.720Z,94436.06
2019-01-27T18:58:12.086Z,94433.98
2019-01-27T19:01:10.350Z,94431.90
2019-01-27T19:03:48.068Z,94430.64
2019-01-27T19:06:36.088Z,94428.55
2019-01-27T19:09:26.143Z,94434.01
